Big Rock, Iowa
Current Conditions -  °F | °C
As of 2:52 AM on Monday 20 Oct 2014 (Local Time) from KDVN Reporting Station
Clear Clear  
Wind Chill: 51°   Ceiling: Unl
Heat Index: 51°   Visibility: 10mi
Dew Point: 43°   Wind: 12mph
Humidity: 74%   Direction: 260°W
Pressure: 29.86"   Gusts: NA
Location:  41.7085°N, 90.7516°W
Report Text: KDVN 200752Z AUTO 26010KT 10SM CLR 11/06 A2986 RMK AO2 SLP112 T01060061 TSNO
Loading
Personal Weather Stations






























Interactive Weather Map
Tropical Storm Tracking
New forecast layout! Learn more

10-Day Weather Forecast

Advertisements
Track Severe Weather on mobile